createdAt,value
2023-02-19T00:02:53.149Z,77.66
2023-02-19T00:07:54.476Z,78.15
2023-02-19T00:12:55.811Z,78.11
2023-02-19T00:17:57.117Z,78.32
2023-02-19T00:22:58.578Z,78.57
2023-02-19T00:28:00.531Z,78.81
2023-02-19T00:33:01.898Z,78.24
2023-02-19T00:38:03.747Z,78.74
2023-02-19T00:43:05.080Z,78.63
2023-02-19T00:48:06.365Z,78.67
2023-02-19T00:53:07.679Z,78.86
2023-02-19T00:58:09.059Z,79.09
2023-02-19T01:03:10.406Z,79.48
2023-02-19T01:08:11.736Z,79.38
2023-02-19T01:13:13.286Z,79.30
2023-02-19T01:18:14.748Z,79.35
2023-02-19T01:23:16.082Z,79.38
2023-02-19T01:28:17.434Z,79.56
2023-02-19T01:33:18.796Z,79.84
2023-02-19T01:38:20.215Z,80.19
2023-02-19T01:43:21.577Z,80.39
2023-02-19T01:48:37.599Z,80.55
2023-02-19T01:53:44.324Z,80.29
2023-02-19T01:58:46.274Z,80.39
2023-02-19T02:03:49.434Z,80.52
2023-02-19T02:09:12.181Z,80.99
2023-02-19T02:14:14.717Z,80.97
2023-02-19T02:19:47.051Z,81.72
2023-02-19T02:25:16.304Z,81.46
2023-02-19T02:30:20.738Z,81.64
2023-02-19T02:35:27.481Z,83.24
2023-02-19T02:40:29.011Z,84.27
2023-02-19T02:45:35.556Z,85.10
2023-02-19T02:51:06.795Z,85.50
2023-02-19T02:56:11.028Z,85.40
2023-02-19T03:01:38.672Z,85.32
2023-02-19T03:06:41.950Z,85.43
2023-02-19T03:12:06.352Z,85.61
2023-02-19T03:17:33.748Z,85.38
2023-02-19T03:22:37.758Z,85.16
2023-02-19T03:27:42.533Z,84.82
2023-02-19T03:32:55.734Z,84.53
2023-02-19T03:38:06.740Z,84.44
2023-02-19T03:43:34.687Z,84.65
2023-02-19T03:48:41.189Z,85.41
2023-02-19T03:54:03.985Z,86.05
2023-02-19T03:59:13.007Z,86.10
2023-02-19T04:04:25.213Z,86.66
2023-02-19T04:09:33.677Z,86.18
2023-02-19T04:14:53.579Z,86.24
2023-02-19T04:19:58.812Z,88.05
2023-02-19T04:25:00.883Z,88.17
2023-02-19T04:30:02.455Z,88.02
2023-02-19T04:35:03.843Z,86.44
2023-02-19T04:40:06.230Z,86.19
2023-02-19T04:45:08.073Z,85.93
2023-02-19T04:50:09.421Z,85.54
2023-02-19T04:55:10.718Z,84.86
2023-02-19T05:00:12.617Z,84.13
2023-02-19T05:05:13.943Z,83.52
2023-02-19T05:10:15.410Z,83.03
2023-02-19T05:15:16.823Z,82.64
2023-02-19T05:20:18.330Z,82.76
2023-02-19T05:25:19.626Z,82.62
2023-02-19T05:30:20.993Z,82.47
2023-02-19T05:35:22.383Z,82.21
2023-02-19T05:40:24.106Z,82.27
2023-02-19T05:45:26.303Z,82.38
2023-02-19T05:50:27.839Z,82.33
2023-02-19T05:55:33.316Z,82.00
2023-02-19T06:00:34.897Z,81.27
2023-02-19T06:05:37.476Z,80.95
2023-02-19T06:10:41.289Z,80.60
2023-02-19T06:15:42.675Z,80.14
2023-02-19T06:20:44.081Z,80.32
2023-02-19T06:25:45.539Z,80.43
2023-02-19T06:30:47.227Z,80.52
2023-02-19T06:35:48.528Z,80.03
2023-02-19T06:40:49.866Z,79.65
2023-02-19T06:45:51.310Z,79.23
2023-02-19T06:50:53.123Z,79.22
2023-02-19T06:56:20.728Z,78.92
2023-02-19T07:01:23.969Z,81.41
2023-02-19T07:06:26.545Z,79.33
2023-02-19T07:11:30.790Z,78.95
2023-02-19T07:16:32.302Z,79.37
2023-02-19T07:21:37.564Z,78.80
2023-02-19T07:26:38.913Z,79.22
2023-02-19T07:31:40.297Z,79.61
2023-02-19T07:36:41.915Z,80.60
2023-02-19T07:41:43.340Z,79.94
2023-02-19T07:46:45.013Z,80.51
2023-02-19T07:51:46.301Z,80.34
2023-02-19T07:56:47.886Z,80.28
2023-02-19T08:02:08.035Z,80.28
2023-02-19T08:07:09.441Z,81.06
2023-02-19T08:12:30.098Z,80.82
2023-02-19T08:17:31.465Z,80.38
2023-02-19T08:22:32.827Z,79.46
2023-02-19T08:27:34.130Z,83.02
2023-02-19T08:32:35.498Z,83.58
2023-02-19T08:37:36.808Z,84.84
2023-02-19T08:42:38.253Z,85.28
2023-02-19T08:47:39.902Z,84.92
2023-02-19T08:52:41.266Z,83.66
2023-02-19T08:57:42.783Z,82.72
2023-02-19T09:02:44.336Z,82.91
2023-02-19T09:07:45.646Z,81.29
2023-02-19T09:12:48.243Z,79.47
2023-02-19T09:17:53.150Z,77.73
2023-02-19T09:22:59.078Z,77.64
2023-02-19T09:28:00.396Z,77.58
2023-02-19T09:33:01.784Z,78.65
2023-02-19T09:38:03.360Z,76.67
2023-02-19T09:43:20.981Z,76.87
2023-02-19T09:48:22.587Z,78.47
2023-02-19T09:53:29.709Z,78.50
2023-02-19T09:58:34.678Z,79.40
2023-02-19T10:03:41.304Z,79.08
2023-02-19T10:08:45.916Z,78.78
2023-02-19T10:14:09.285Z,79.67
2023-02-19T10:19:12.929Z,80.92
2023-02-19T10:24:23.339Z,82.73
2023-02-19T10:29:24.987Z,83.24
2023-02-19T10:34:26.351Z,83.54
2023-02-19T10:39:46.678Z,84.15
2023-02-19T10:44:54.173Z,85.00
2023-02-19T10:49:59.480Z,84.99
2023-02-19T10:55:26.293Z,84.18
2023-02-19T11:00:30.533Z,83.95
2023-02-19T11:05:32.118Z,84.57
2023-02-19T11:10:42.462Z,83.54
2023-02-19T11:15:44.306Z,82.01
2023-02-19T11:21:00.407Z,81.26
2023-02-19T11:26:06.448Z,79.78
2023-02-19T11:31:19.937Z,75.00
2023-02-19T11:36:29.484Z,69.07
2023-02-19T11:41:49.894Z,54.67
2023-02-19T11:47:04.849Z,57.23
2023-02-19T11:52:21.355Z,50.38
2023-02-19T11:57:35.824Z,54.97
2023-02-19T12:03:02.265Z,53.61
2023-02-19T12:08:22.749Z,49.03
2023-02-19T12:13:38.690Z,48.80
2023-02-19T12:19:08.220Z,45.34
2023-02-19T12:24:54.057Z,50.93
2023-02-19T12:30:02.451Z,55.77
2023-02-19T12:35:33.305Z,56.52
2023-02-19T12:40:50.010Z,57.90
2023-02-19T12:45:57.970Z,56.30
2023-02-19T12:51:07.976Z,60.65
2023-02-19T12:56:17.092Z,63.86
2023-02-19T13:01:23.943Z,62.73
2023-02-19T13:06:40.064Z,56.06
2023-02-19T13:11:49.142Z,53.68
2023-02-19T13:16:56.236Z,50.46
2023-02-19T13:22:27.639Z,53.61
2023-02-19T13:33:13.633Z,40.03
2023-02-19T13:38:15.489Z,33.88
2023-02-19T13:43:29.166Z,39.41
2023-02-19T13:48:33.803Z,45.25
2023-02-19T13:53:41.520Z,48.33
2023-02-19T13:58:53.794Z,48.90
2023-02-19T14:04:08.165Z,51.51
2023-02-19T14:09:41.412Z,54.20
2023-02-19T14:14:46.777Z,54.83
2023-02-19T14:19:52.741Z,56.41
2023-02-19T14:24:55.047Z,57.83
2023-02-19T14:29:56.885Z,59.21
2023-02-19T14:34:58.231Z,60.24
2023-02-19T14:39:59.812Z,61.69
2023-02-19T14:45:06.197Z,62.27
2023-02-19T14:50:14.950Z,62.29
2023-02-19T14:55:30.395Z,57.39
2023-02-19T15:00:41.674Z,50.17
2023-02-19T15:05:45.222Z,46.19
2023-02-19T15:10:46.975Z,49.24
2023-02-19T15:15:48.326Z,52.73
2023-02-19T15:20:51.551Z,55.72
2023-02-19T15:25:53.204Z,56.62
2023-02-19T15:30:57.670Z,58.80
2023-02-19T15:36:04.426Z,59.79
2023-02-19T15:41:05.877Z,60.17
2023-02-19T15:46:15.463Z,61.38
2023-02-19T15:51:25.468Z,62.65
2023-02-19T15:56:33.359Z,62.44
2023-02-19T16:01:38.837Z,61.94
2023-02-19T16:06:58.966Z,62.25
2023-02-19T16:12:01.897Z,62.69
2023-02-19T16:17:09.419Z,63.65
2023-02-19T16:22:12.816Z,63.70
2023-02-19T16:27:30.748Z,64.25
2023-02-19T16:32:32.251Z,65.38
2023-02-19T16:37:38.966Z,64.90
2023-02-19T16:42:49.691Z,65.65
2023-02-19T16:47:51.764Z,64.40
2023-02-19T16:52:58.369Z,64.74
2023-02-19T16:58:01.164Z,65.75
2023-02-19T17:03:09.033Z,65.37
2023-02-19T17:08:25.618Z,65.43
2023-02-19T17:13:26.890Z,65.64
2023-02-19T17:18:28.611Z,65.85
2023-02-19T17:23:29.934Z,65.03
2023-02-19T17:28:31.438Z,65.14
2023-02-19T17:33:32.756Z,65.42
2023-02-19T17:38:34.169Z,66.20
2023-02-19T17:43:35.469Z,66.52
2023-02-19T17:48:36.788Z,65.97
2023-02-19T17:53:38.071Z,66.90
2023-02-19T17:58:39.355Z,67.29
2023-02-19T18:03:40.737Z,68.08
2023-02-19T18:08:53.178Z,67.23
2023-02-19T18:13:54.625Z,67.24
2023-02-19T18:18:58.184Z,67.04
2023-02-19T18:23:59.767Z,67.70
2023-02-19T18:29:01.225Z,67.30
2023-02-19T18:34:02.934Z,67.39
2023-02-19T18:39:04.449Z,68.12
2023-02-19T18:44:05.829Z,67.99
2023-02-19T18:49:07.175Z,69.18
2023-02-19T18:54:08.498Z,69.19
2023-02-19T18:59:10.217Z,68.34
2023-02-19T19:04:12.059Z,68.83
2023-02-19T19:09:13.420Z,68.50
2023-02-19T19:14:14.862Z,69.29
2023-02-19T19:19:18.884Z,69.41
2023-02-19T19:24:21.195Z,69.82
2023-02-19T19:29:23.062Z,69.90
2023-02-19T19:34:24.778Z,69.99
2023-02-19T19:39:26.168Z,70.04
2023-02-19T19:44:27.646Z,69.99
2023-02-19T19:49:28.996Z,69.86
2023-02-19T19:54:30.311Z,69.62
2023-02-19T19:59:32.438Z,69.39
2023-02-19T20:04:33.868Z,69.41
2023-02-19T20:09:35.154Z,69.72
2023-02-19T20:14:36.476Z,69.63
2023-02-19T20:19:37.816Z,69.13
2023-02-19T20:24:39.163Z,70.58
2023-02-19T20:29:40.554Z,69.91
2023-02-19T20:34:41.878Z,70.29
2023-02-19T20:39:43.235Z,70.84
2023-02-19T20:44:44.783Z,71.36
2023-02-19T20:49:47.136Z,71.40
2023-02-19T20:54:48.443Z,71.00
2023-02-19T20:59:49.795Z,70.98
2023-02-19T21:04:51.224Z,70.44
2023-02-19T21:09:52.883Z,70.04
2023-02-19T21:14:54.238Z,71.07
2023-02-19T21:19:55.786Z,71.43
2023-02-19T21:24:57.178Z,71.38
2023-02-19T21:29:58.524Z,71.46
2023-02-19T21:34:59.886Z,71.83
2023-02-19T21:40:01.557Z,71.82
2023-02-19T21:45:03.653Z,71.63
2023-02-19T21:50:05.651Z,72.15
2023-02-19T21:55:07.094Z,71.35
2023-02-19T22:00:09.543Z,72.15
2023-02-19T22:05:11.075Z,72.04
2023-02-19T22:10:13.444Z,72.14
2023-02-19T22:15:15.197Z,71.90
2023-02-19T22:20:17.246Z,72.19
2023-02-19T22:25:18.685Z,71.71
2023-02-19T22:30:20.287Z,70.41
2023-02-19T22:35:21.930Z,71.15
2023-02-19T22:40:23.228Z,70.93
2023-02-19T22:45:25.464Z,70.76
2023-02-19T22:50:26.875Z,70.27
2023-02-19T22:55:28.549Z,68.09
2023-02-19T23:00:29.848Z,68.33
2023-02-19T23:05:32.296Z,67.95
2023-02-19T23:10:33.714Z,66.93
2023-02-19T23:15:35.118Z,66.70
2023-02-19T23:20:36.534Z,67.06
2023-02-19T23:25:37.942Z,66.93
2023-02-19T23:30:39.429Z,66.51
2023-02-19T23:35:40.961Z,66.73
2023-02-19T23:40:42.984Z,66.15
2023-02-19T23:45:44.617Z,66.19
2023-02-19T23:50:46.137Z,66.19
2023-02-19T23:55:47.526Z,66.76
